DLH5CH EGCC-EDDF
Flight info
| Callsign | DLH5CH |
|---|---|
| Flight time | 1h 26m |
| Altitude | 35000 |
| Route | DESIG L603 DOLAS DCT NAVPI DCT NOLRU DCT DIXAT DIXAT1A |
| Aircraft | A321/M-SDE3FGHIRWY/LB1 |
Departure
| Time | 2026-05-06 14:26 |
|---|---|
| Airport | Manchester Airport (EGCC) |
Arrival
| Time | 2026-05-06 15:52 |
|---|---|
| Airport | Frankfurt Main Airport (EDDF) |
| Time | Latitude | Longitude | Altitude | Speed | Heading |
|---|---|---|---|---|---|
| 2026-05-06 13:51 | 53.36294 | -2.27840 | 255 ft | 0 kts | 195° |
| 2026-05-06 14:10 | 53.36297 | -2.27839 | 255 ft | 3 kts | 195° |
| 2026-05-06 14:11 | 53.36321 | -2.27824 | 255 ft | 4 kts | 211° |
| 2026-05-06 14:11 | 53.36339 | -2.27796 | 255 ft | 4 kts | 254° |
| 2026-05-06 14:11 | 53.36338 | -2.27768 | 255 ft | 1 kts | 309° |
| 2026-05-06 14:11 | 53.36336 | -2.27763 | 255 ft | 0 kts | 309° |
| 2026-05-06 14:15 | 53.36336 | -2.27764 | 255 ft | 0 kts | 309° |
| 2026-05-06 14:16 | 53.36342 | -2.27776 | 255 ft | 2 kts | 310° |
| 2026-05-06 14:16 | 53.36356 | -2.27803 | 255 ft | 4 kts | 312° |
| 2026-05-06 14:16 | 53.36370 | -2.27827 | 255 ft | 5 kts | 314° |
| 2026-05-06 14:16 | 53.36393 | -2.27881 | 255 ft | 6 kts | 288° |
| 2026-05-06 14:17 | 53.36366 | -2.27977 | 255 ft | 8 kts | 225° |
| 2026-05-06 14:17 | 53.36336 | -2.28024 | 255 ft | 9 kts | 221° |
| 2026-05-06 14:17 | 53.36276 | -2.28070 | 255 ft | 8 kts | 200° |
| 2026-05-06 14:17 | 53.36221 | -2.28123 | 255 ft | 10 kts | 213° |
| 2026-05-06 14:18 | 53.36155 | -2.28140 | 255 ft | 11 kts | 152° |
| 2026-05-06 14:18 | 53.36099 | -2.28057 | 255 ft | 10 kts | 136° |
| 2026-05-06 14:18 | 53.36042 | -2.27975 | 255 ft | 12 kts | 140° |
| 2026-05-06 14:18 | 53.35985 | -2.27894 | 255 ft | 11 kts | 140° |
| 2026-05-06 14:19 | 53.35911 | -2.27849 | 255 ft | 12 kts | 178° |
| 2026-05-06 14:19 | 53.35816 | -2.27863 | 251 ft | 15 kts | 186° |
| 2026-05-06 14:19 | 53.35728 | -2.27878 | 246 ft | 13 kts | 186° |
| 2026-05-06 14:19 | 53.35618 | -2.27897 | 240 ft | 19 kts | 186° |
| 2026-05-06 14:20 | 53.35523 | -2.27912 | 238 ft | 7 kts | 185° |
| 2026-05-06 14:20 | 53.35509 | -2.27914 | 239 ft | 0 kts | 185° |
| 2026-05-06 14:20 | 53.35506 | -2.27915 | 239 ft | 2 kts | 185° |
| 2026-05-06 14:21 | 53.35484 | -2.27919 | 240 ft | 6 kts | 188° |
| 2026-05-06 14:21 | 53.35412 | -2.27994 | 237 ft | 16 kts | 222° |
| 2026-05-06 14:21 | 53.35328 | -2.28129 | 238 ft | 18 kts | 224° |
| 2026-05-06 14:21 | 53.35233 | -2.28292 | 232 ft | 20 kts | 229° |
| 2026-05-06 14:22 | 53.35142 | -2.28494 | 227 ft | 21 kts | 233° |
| 2026-05-06 14:22 | 53.35060 | -2.28671 | 229 ft | 19 kts | 229° |
| 2026-05-06 14:22 | 53.34967 | -2.28833 | 226 ft | 20 kts | 226° |
| 2026-05-06 14:22 | 53.34907 | -2.28934 | 224 ft | 8 kts | 225° |
| 2026-05-06 14:23 | 53.34853 | -2.29024 | 221 ft | 13 kts | 226° |
| 2026-05-06 14:23 | 53.34798 | -2.29134 | 217 ft | 13 kts | 231° |
| 2026-05-06 14:23 | 53.34739 | -2.29260 | 212 ft | 13 kts | 229° |
| 2026-05-06 14:23 | 53.34662 | -2.29335 | 211 ft | 12 kts | 194° |
| 2026-05-06 14:24 | 53.34583 | -2.29328 | 213 ft | 11 kts | 161° |
| 2026-05-06 14:24 | 53.34537 | -2.29260 | 220 ft | 8 kts | 99° |
| 2026-05-06 14:24 | 53.34560 | -2.29179 | 216 ft | 9 kts | 51° |
| 2026-05-06 14:24 | 53.34565 | -2.29169 | 218 ft | 0 kts | 51° |
| 2026-05-06 14:25 | 53.34577 | -2.29145 | 219 ft | 22 kts | 51° |
| 2026-05-06 14:25 | 53.34845 | -2.28592 | 230 ft | 97 kts | 51° |
| 2026-05-06 14:25 | 53.35405 | -2.27429 | 256 ft | 156 kts | 51° |
| 2026-05-06 14:26 | 53.36080 | -2.26009 | 979 ft | 153 kts | 51° |
| 2026-05-06 14:26 | 53.36744 | -2.24625 | 1729 ft | 155 kts | 52° |
| 2026-05-06 14:26 | 53.37459 | -2.23118 | 2089 ft | 176 kts | 52° |
| 2026-05-06 14:26 | 53.38262 | -2.21418 | 2403 ft | 197 kts | 52° |
| 2026-05-06 14:27 | 53.39164 | -2.19508 | 2625 ft | 221 kts | 52° |
| 2026-05-06 14:27 | 53.40175 | -2.17365 | 2948 ft | 244 kts | 52° |
| 2026-05-06 14:27 | 53.41246 | -2.15096 | 3662 ft | 252 kts | 52° |
| 2026-05-06 14:27 | 53.42338 | -2.12781 | 4502 ft | 255 kts | 52° |
| 2026-05-06 14:28 | 53.43455 | -2.10410 | 4901 ft | 259 kts | 52° |
| 2026-05-06 14:28 | 53.44569 | -2.08044 | 4976 ft | 259 kts | 52° |
| 2026-05-06 14:28 | 53.45682 | -2.05678 | 5002 ft | 257 kts | 52° |
| 2026-05-06 14:28 | 53.46784 | -2.03330 | 4998 ft | 255 kts | 51° |
| 2026-05-06 14:29 | 53.47887 | -2.00976 | 5101 ft | 260 kts | 51° |
| 2026-05-06 14:29 | 53.48986 | -1.98638 | 6032 ft | 259 kts | 51° |
| 2026-05-06 14:29 | 53.50137 | -1.96211 | 6852 ft | 264 kts | 50° |
| 2026-05-06 14:29 | 53.51220 | -1.93735 | 7569 ft | 270 kts | 59° |
| 2026-05-06 14:30 | 53.51941 | -1.90751 | 8294 ft | 278 kts | 74° |
| 2026-05-06 14:30 | 53.52165 | -1.87523 | 9002 ft | 285 kts | 90° |
| 2026-05-06 14:30 | 53.51848 | -1.84206 | 9720 ft | 292 kts | 104° |
| 2026-05-06 14:30 | 53.51262 | -1.80901 | 10241 ft | 304 kts | 105° |
| 2026-05-06 14:31 | 53.50637 | -1.77361 | 10415 ft | 327 kts | 105° |
| 2026-05-06 14:31 | 53.49972 | -1.73581 | 10544 ft | 349 kts | 105° |
| 2026-05-06 14:31 | 53.49267 | -1.69589 | 10919 ft | 360 kts | 106° |
| 2026-05-06 14:31 | 53.48546 | -1.65525 | 11499 ft | 366 kts | 106° |
| 2026-05-06 14:32 | 53.47814 | -1.61414 | 12087 ft | 370 kts | 105° |
| 2026-05-06 14:32 | 53.47073 | -1.57251 | 12732 ft | 374 kts | 106° |
| 2026-05-06 14:32 | 53.46323 | -1.53047 | 13375 ft | 378 kts | 106° |
| 2026-05-06 14:32 | 53.45563 | -1.48801 | 13976 ft | 381 kts | 106° |
| 2026-05-06 14:33 | 53.44796 | -1.44515 | 14508 ft | 386 kts | 106° |
| 2026-05-06 14:33 | 53.44019 | -1.40194 | 15077 ft | 389 kts | 106° |
| 2026-05-06 14:33 | 53.43229 | -1.35838 | 15647 ft | 391 kts | 107° |
| 2026-05-06 14:33 | 53.42434 | -1.31464 | 16200 ft | 395 kts | 107° |
| 2026-05-06 14:34 | 53.41628 | -1.27035 | 16733 ft | 398 kts | 107° |
| 2026-05-06 14:34 | 53.40815 | -1.22571 | 17303 ft | 401 kts | 107° |
| 2026-05-06 14:34 | 53.40009 | -1.18134 | 17855 ft | 404 kts | 107° |
| 2026-05-06 14:34 | 53.39178 | -1.13554 | 18374 ft | 408 kts | 107° |
| 2026-05-06 14:35 | 53.38356 | -1.09048 | 18801 ft | 411 kts | 107° |
| 2026-05-06 14:35 | 53.37516 | -1.04460 | 19264 ft | 413 kts | 107° |
| 2026-05-06 14:35 | 53.36668 | -0.99849 | 19688 ft | 417 kts | 107° |
| 2026-05-06 14:35 | 53.35812 | -0.95195 | 20115 ft | 421 kts | 107° |
| 2026-05-06 14:36 | 53.34947 | -0.90504 | 20567 ft | 423 kts | 108° |
| 2026-05-06 14:36 | 53.34074 | -0.85799 | 21036 ft | 425 kts | 108° |
| 2026-05-06 14:36 | 53.33190 | -0.81059 | 21468 ft | 428 kts | 108° |
| 2026-05-06 14:36 | 53.32300 | -0.76281 | 21886 ft | 431 kts | 108° |
| 2026-05-06 14:37 | 53.31406 | -0.71486 | 22338 ft | 433 kts | 108° |
| 2026-05-06 14:37 | 53.30503 | -0.66663 | 22796 ft | 436 kts | 108° |
| 2026-05-06 14:37 | 53.29595 | -0.61818 | 23211 ft | 439 kts | 108° |
| 2026-05-06 14:37 | 53.28680 | -0.56946 | 23641 ft | 441 kts | 108° |
| 2026-05-06 14:38 | 53.27756 | -0.52039 | 24006 ft | 443 kts | 108° |
| 2026-05-06 14:38 | 53.26824 | -0.47103 | 24366 ft | 445 kts | 108° |
| 2026-05-06 14:38 | 53.25891 | -0.42159 | 24724 ft | 448 kts | 108° |
| 2026-05-06 14:38 | 53.24953 | -0.37199 | 25069 ft | 450 kts | 109° |
| 2026-05-06 14:39 | 53.23999 | -0.32192 | 25424 ft | 452 kts | 109° |
| 2026-05-06 14:39 | 53.23051 | -0.27250 | 25742 ft | 454 kts | 109° |
| 2026-05-06 14:39 | 53.22073 | -0.22162 | 26101 ft | 456 kts | 109° |
| 2026-05-06 14:39 | 53.21111 | -0.17160 | 26458 ft | 458 kts | 109° |
| 2026-05-06 14:40 | 53.20136 | -0.12094 | 26799 ft | 460 kts | 109° |
| 2026-05-06 14:40 | 53.19152 | -0.07001 | 27126 ft | 462 kts | 109° |
| 2026-05-06 14:40 | 53.18159 | -0.01879 | 27472 ft | 465 kts | 109° |
| 2026-05-06 14:40 | 53.17162 | 0.03252 | 27794 ft | 467 kts | 109° |
| 2026-05-06 14:41 | 53.16153 | 0.08422 | 28102 ft | 469 kts | 110° |
| 2026-05-06 14:41 | 53.15143 | 0.13585 | 28416 ft | 471 kts | 110° |
| 2026-05-06 14:41 | 53.14126 | 0.18801 | 28706 ft | 473 kts | 110° |
| 2026-05-06 14:41 | 53.13110 | 0.24018 | 28992 ft | 475 kts | 110° |
| 2026-05-06 14:42 | 53.12084 | 0.29257 | 29265 ft | 477 kts | 110° |
| 2026-05-06 14:42 | 53.11050 | 0.34502 | 29594 ft | 477 kts | 110° |
| 2026-05-06 14:42 | 53.10011 | 0.39750 | 29975 ft | 476 kts | 110° |
| 2026-05-06 14:42 | 53.08974 | 0.44962 | 30280 ft | 475 kts | 110° |
| 2026-05-06 14:43 | 53.07932 | 0.50172 | 30572 ft | 475 kts | 110° |
| 2026-05-06 14:43 | 53.06892 | 0.55377 | 30891 ft | 474 kts | 110° |
| 2026-05-06 14:43 | 53.05852 | 0.60580 | 31203 ft | 473 kts | 110° |
| 2026-05-06 14:43 | 53.04815 | 0.65753 | 31493 ft | 472 kts | 110° |
| 2026-05-06 14:44 | 53.03774 | 0.70942 | 31793 ft | 472 kts | 110° |
| 2026-05-06 14:44 | 53.02748 | 0.76034 | 32105 ft | 471 kts | 110° |
| 2026-05-06 14:44 | 53.01694 | 0.81251 | 32400 ft | 471 kts | 110° |
| 2026-05-06 14:45 | 52.99602 | 0.91533 | 32989 ft | 469 kts | 110° |
| 2026-05-06 14:45 | 52.98553 | 0.96661 | 33289 ft | 469 kts | 110° |
| 2026-05-06 14:45 | 52.97517 | 1.01708 | 33567 ft | 468 kts | 111° |
| 2026-05-06 14:45 | 52.96424 | 1.06791 | 33903 ft | 466 kts | 112° |
| 2026-05-06 14:46 | 52.95297 | 1.11807 | 34181 ft | 464 kts | 112° |
| 2026-05-06 14:46 | 52.94146 | 1.16807 | 34415 ft | 464 kts | 113° |
| 2026-05-06 14:46 | 52.92986 | 1.21806 | 34628 ft | 464 kts | 113° |
| 2026-05-06 14:46 | 52.91830 | 1.26797 | 34837 ft | 464 kts | 112° |
| 2026-05-06 14:47 | 52.90675 | 1.31818 | 34971 ft | 465 kts | 112° |
| 2026-05-06 14:47 | 52.88386 | 1.41831 | 35001 ft | 465 kts | 112° |
| 2026-05-06 14:48 | 52.86101 | 1.51830 | 34993 ft | 464 kts | 112° |
| 2026-05-06 14:48 | 52.83806 | 1.61804 | 35003 ft | 463 kts | 112° |
| 2026-05-06 14:49 | 52.81495 | 1.71744 | 34997 ft | 463 kts | 112° |
| 2026-05-06 14:49 | 52.79175 | 1.81680 | 35004 ft | 464 kts | 112° |
| 2026-05-06 14:50 | 52.76845 | 1.91641 | 35004 ft | 464 kts | 112° |
| 2026-05-06 14:50 | 52.74509 | 2.01583 | 34988 ft | 464 kts | 112° |
| 2026-05-06 14:51 | 52.72185 | 2.11447 | 35001 ft | 463 kts | 112° |
| 2026-05-06 14:51 | 52.69844 | 2.21327 | 35003 ft | 463 kts | 112° |
| 2026-05-06 14:52 | 52.67496 | 2.31192 | 35006 ft | 463 kts | 112° |
| 2026-05-06 14:52 | 52.65132 | 2.41065 | 34999 ft | 463 kts | 113° |
| 2026-05-06 14:53 | 52.62763 | 2.50917 | 34995 ft | 462 kts | 113° |
| 2026-05-06 14:53 | 52.60391 | 2.60737 | 34991 ft | 462 kts | 113° |
| 2026-05-06 14:54 | 52.58008 | 2.70559 | 34994 ft | 462 kts | 113° |
| 2026-05-06 14:54 | 52.55612 | 2.80353 | 34988 ft | 463 kts | 113° |
| 2026-05-06 14:55 | 52.53093 | 2.90097 | 34981 ft | 462 kts | 116° |
| 2026-05-06 14:55 | 52.50333 | 2.99546 | 34977 ft | 462 kts | 118° |
| 2026-05-06 14:56 | 52.47483 | 3.08967 | 34971 ft | 461 kts | 118° |
| 2026-05-06 14:56 | 52.44676 | 3.18421 | 34974 ft | 461 kts | 117° |
| 2026-05-06 14:57 | 52.41906 | 3.27903 | 34971 ft | 461 kts | 118° |
| 2026-05-06 14:57 | 52.39136 | 3.37365 | 34973 ft | 461 kts | 117° |
| 2026-05-06 14:58 | 52.36344 | 3.46820 | 34964 ft | 461 kts | 118° |
| 2026-05-06 14:58 | 52.33542 | 3.56232 | 34970 ft | 460 kts | 118° |
| 2026-05-06 14:59 | 52.30738 | 3.65621 | 34968 ft | 459 kts | 118° |
| 2026-05-06 14:59 | 52.27937 | 3.74982 | 34964 ft | 459 kts | 119° |
| 2026-05-06 15:00 | 52.25604 | 3.82746 | 34952 ft | 458 kts | 118° |
| 2026-05-06 15:00 | 52.22792 | 3.92052 | 34942 ft | 458 kts | 118° |
| 2026-05-06 15:01 | 52.19979 | 4.01361 | 34938 ft | 457 kts | 118° |
| 2026-05-06 15:01 | 52.17169 | 4.10623 | 34942 ft | 455 kts | 118° |
| 2026-05-06 15:02 | 52.14347 | 4.19855 | 34929 ft | 454 kts | 118° |
| 2026-05-06 15:02 | 52.11522 | 4.29040 | 34923 ft | 454 kts | 118° |
| 2026-05-06 15:03 | 52.08702 | 4.38238 | 34918 ft | 454 kts | 118° |
| 2026-05-06 15:03 | 52.05873 | 4.47419 | 34920 ft | 454 kts | 119° |
| 2026-05-06 15:04 | 52.03041 | 4.56544 | 34919 ft | 453 kts | 119° |
| 2026-05-06 15:04 | 52.00216 | 4.65635 | 34911 ft | 453 kts | 118° |
| 2026-05-06 15:05 | 51.97370 | 4.74765 | 34913 ft | 453 kts | 119° |
| 2026-05-06 15:05 | 51.94516 | 4.83871 | 34899 ft | 453 kts | 118° |
| 2026-05-06 15:06 | 51.91662 | 4.92942 | 34910 ft | 453 kts | 119° |
| 2026-05-06 15:06 | 51.88794 | 5.02021 | 34917 ft | 452 kts | 119° |
| 2026-05-06 15:07 | 51.85924 | 5.11070 | 34925 ft | 452 kts | 119° |
| 2026-05-06 15:07 | 51.83046 | 5.20109 | 34921 ft | 452 kts | 119° |
| 2026-05-06 15:08 | 51.80169 | 5.29138 | 34926 ft | 451 kts | 119° |
| 2026-05-06 15:08 | 51.77288 | 5.38142 | 34911 ft | 451 kts | 119° |
| 2026-05-06 15:09 | 51.74396 | 5.47135 | 34917 ft | 451 kts | 120° |
| 2026-05-06 15:09 | 51.71497 | 5.56102 | 34915 ft | 451 kts | 120° |
| 2026-05-06 15:10 | 51.68598 | 5.65060 | 34917 ft | 450 kts | 120° |
| 2026-05-06 15:10 | 51.65691 | 5.74005 | 34906 ft | 450 kts | 120° |
| 2026-05-06 15:11 | 51.62785 | 5.82936 | 34901 ft | 450 kts | 120° |
| 2026-05-06 15:11 | 51.59883 | 5.91804 | 34905 ft | 450 kts | 120° |
| 2026-05-06 15:12 | 51.56956 | 6.00706 | 34902 ft | 450 kts | 120° |
| 2026-05-06 15:12 | 51.54020 | 6.09581 | 34907 ft | 450 kts | 120° |
| 2026-05-06 15:13 | 51.51077 | 6.18469 | 34904 ft | 450 kts | 120° |
| 2026-05-06 15:13 | 51.48566 | 6.27689 | 34892 ft | 452 kts | 113° |
| 2026-05-06 15:14 | 51.46269 | 6.37083 | 34892 ft | 452 kts | 114° |
| 2026-05-06 15:14 | 51.43967 | 6.46465 | 34885 ft | 452 kts | 114° |
| 2026-05-06 15:15 | 51.41647 | 6.55813 | 34880 ft | 452 kts | 114° |
| 2026-05-06 15:15 | 51.39334 | 6.65106 | 34876 ft | 452 kts | 114° |
| 2026-05-06 15:16 | 51.37006 | 6.74464 | 34861 ft | 452 kts | 114° |
| 2026-05-06 15:16 | 51.34662 | 6.83832 | 34863 ft | 453 kts | 114° |
| 2026-05-06 15:17 | 51.32312 | 6.93172 | 34876 ft | 454 kts | 114° |
| 2026-05-06 15:17 | 51.29947 | 7.02525 | 34219 ft | 458 kts | 114° |
| 2026-05-06 15:17 | 51.28652 | 7.07218 | 33148 ft | 462 kts | 121° |
| 2026-05-06 15:18 | 51.26909 | 7.11537 | 32174 ft | 461 kts | 130° |
| 2026-05-06 15:18 | 51.24760 | 7.15298 | 31230 ft | 460 kts | 139° |
| 2026-05-06 15:18 | 51.22245 | 7.18438 | 30255 ft | 459 kts | 148° |
| 2026-05-06 15:18 | 51.19444 | 7.20888 | 29193 ft | 458 kts | 154° |
| 2026-05-06 15:19 | 51.16673 | 7.23064 | 28193 ft | 457 kts | 154° |
| 2026-05-06 15:19 | 51.13851 | 7.25287 | 27650 ft | 446 kts | 154° |
| 2026-05-06 15:19 | 51.11086 | 7.27476 | 26992 ft | 440 kts | 154° |
| 2026-05-06 15:19 | 51.08381 | 7.29664 | 26373 ft | 434 kts | 154° |
| 2026-05-06 15:20 | 51.05708 | 7.31868 | 25750 ft | 429 kts | 154° |
| 2026-05-06 15:20 | 51.03109 | 7.34033 | 25167 ft | 424 kts | 153° |
| 2026-05-06 15:20 | 51.00486 | 7.36220 | 24557 ft | 419 kts | 154° |
| 2026-05-06 15:20 | 50.97943 | 7.38331 | 23963 ft | 415 kts | 154° |
| 2026-05-06 15:21 | 50.95393 | 7.40438 | 23370 ft | 410 kts | 154° |
| 2026-05-06 15:21 | 50.92869 | 7.42514 | 22742 ft | 406 kts | 154° |
| 2026-05-06 15:21 | 50.90381 | 7.44548 | 22187 ft | 399 kts | 154° |
| 2026-05-06 15:21 | 50.87928 | 7.46550 | 21637 ft | 394 kts | 154° |
| 2026-05-06 15:22 | 50.85511 | 7.48525 | 21110 ft | 389 kts | 154° |
| 2026-05-06 15:22 | 50.83122 | 7.50481 | 20594 ft | 384 kts | 154° |
| 2026-05-06 15:22 | 50.80768 | 7.52411 | 20082 ft | 378 kts | 156° |
| 2026-05-06 15:22 | 50.78452 | 7.54307 | 19596 ft | 373 kts | 156° |
| 2026-05-06 15:23 | 50.76154 | 7.56182 | 19140 ft | 368 kts | 156° |
| 2026-05-06 15:23 | 50.73890 | 7.58022 | 18675 ft | 365 kts | 156° |
| 2026-05-06 15:23 | 50.71632 | 7.59852 | 18206 ft | 363 kts | 156° |
| 2026-05-06 15:23 | 50.69400 | 7.61660 | 17712 ft | 360 kts | 156° |
| 2026-05-06 15:24 | 50.67110 | 7.63505 | 17254 ft | 376 kts | 156° |
| 2026-05-06 15:24 | 50.64766 | 7.65390 | 16791 ft | 380 kts | 156° |
| 2026-05-06 15:24 | 50.62420 | 7.67285 | 16322 ft | 379 kts | 156° |
| 2026-05-06 15:24 | 50.60103 | 7.69155 | 15885 ft | 378 kts | 155° |
| 2026-05-06 15:25 | 50.57747 | 7.71053 | 15438 ft | 376 kts | 155° |
| 2026-05-06 15:25 | 50.55425 | 7.72926 | 15012 ft | 374 kts | 155° |
| 2026-05-06 15:25 | 50.53111 | 7.74793 | 14590 ft | 372 kts | 155° |
| 2026-05-06 15:25 | 50.50816 | 7.76642 | 14172 ft | 370 kts | 155° |
| 2026-05-06 15:26 | 50.48525 | 7.78488 | 13751 ft | 369 kts | 155° |
| 2026-05-06 15:26 | 50.46244 | 7.80323 | 13289 ft | 367 kts | 155° |
| 2026-05-06 15:26 | 50.44018 | 7.82146 | 12872 ft | 365 kts | 152° |
| 2026-05-06 15:26 | 50.41942 | 7.84436 | 12245 ft | 366 kts | 144° |
| 2026-05-06 15:27 | 50.39944 | 7.86916 | 11504 ft | 365 kts | 144° |
| 2026-05-06 15:27 | 50.37963 | 7.89383 | 10801 ft | 362 kts | 144° |
| 2026-05-06 15:27 | 50.36006 | 7.91822 | 10394 ft | 352 kts | 144° |
| 2026-05-06 15:27 | 50.34141 | 7.94147 | 10269 ft | 334 kts | 144° |
| 2026-05-06 15:28 | 50.32365 | 7.96355 | 10138 ft | 318 kts | 144° |
| 2026-05-06 15:28 | 50.30674 | 7.98445 | 10017 ft | 303 kts | 144° |
| 2026-05-06 15:28 | 50.29045 | 8.00449 | 9827 ft | 293 kts | 145° |
| 2026-05-06 15:28 | 50.27457 | 8.02401 | 9801 ft | 290 kts | 145° |
| 2026-05-06 15:29 | 50.25969 | 8.04544 | 9786 ft | 293 kts | 133° |
| 2026-05-06 15:29 | 50.24717 | 8.07065 | 9715 ft | 294 kts | 130° |
| 2026-05-06 15:29 | 50.23476 | 8.09602 | 9633 ft | 293 kts | 130° |
| 2026-05-06 15:29 | 50.22238 | 8.12124 | 9558 ft | 293 kts | 130° |
| 2026-05-06 15:30 | 50.21013 | 8.14613 | 9478 ft | 293 kts | 130° |
| 2026-05-06 15:30 | 50.19772 | 8.17129 | 9398 ft | 292 kts | 130° |
| 2026-05-06 15:30 | 50.18515 | 8.19675 | 9334 ft | 292 kts | 130° |
| 2026-05-06 15:30 | 50.17275 | 8.22179 | 9268 ft | 292 kts | 130° |
| 2026-05-06 15:31 | 50.16033 | 8.24685 | 9190 ft | 292 kts | 130° |
| 2026-05-06 15:31 | 50.14809 | 8.27148 | 9107 ft | 291 kts | 130° |
| 2026-05-06 15:31 | 50.13573 | 8.29639 | 9036 ft | 290 kts | 130° |
| 2026-05-06 15:32 | 50.11213 | 8.34723 | 8900 ft | 292 kts | 118° |
| 2026-05-06 15:32 | 50.10601 | 8.37735 | 8825 ft | 295 kts | 99° |
| 2026-05-06 15:32 | 50.10615 | 8.40934 | 8750 ft | 297 kts | 81° |
| 2026-05-06 15:32 | 50.11219 | 8.44004 | 8668 ft | 298 kts | 70° |
| 2026-05-06 15:33 | 50.11956 | 8.47043 | 8612 ft | 299 kts | 70° |
| 2026-05-06 15:33 | 50.12683 | 8.50061 | 8537 ft | 298 kts | 70° |
| 2026-05-06 15:33 | 50.13409 | 8.53094 | 8462 ft | 298 kts | 71° |
| 2026-05-06 15:33 | 50.14135 | 8.56136 | 8384 ft | 299 kts | 70° |
| 2026-05-06 15:34 | 50.14856 | 8.59170 | 8303 ft | 298 kts | 70° |
| 2026-05-06 15:34 | 50.15575 | 8.62206 | 8232 ft | 298 kts | 71° |
| 2026-05-06 15:34 | 50.16295 | 8.65239 | 8147 ft | 297 kts | 71° |
| 2026-05-06 15:34 | 50.17011 | 8.68260 | 8079 ft | 297 kts | 70° |
| 2026-05-06 15:35 | 50.17726 | 8.71271 | 8004 ft | 297 kts | 71° |
| 2026-05-06 15:35 | 50.18444 | 8.74297 | 7920 ft | 297 kts | 71° |
| 2026-05-06 15:35 | 50.19159 | 8.77317 | 7851 ft | 295 kts | 70° |
| 2026-05-06 15:35 | 50.19859 | 8.80285 | 7775 ft | 296 kts | 70° |
| 2026-05-06 15:36 | 50.20569 | 8.83296 | 7700 ft | 295 kts | 70° |
| 2026-05-06 15:36 | 50.21285 | 8.86332 | 7625 ft | 294 kts | 71° |
| 2026-05-06 15:36 | 50.21992 | 8.89333 | 7554 ft | 295 kts | 71° |
| 2026-05-06 15:36 | 50.22691 | 8.92299 | 7477 ft | 294 kts | 71° |
| 2026-05-06 15:37 | 50.23396 | 8.95300 | 7398 ft | 293 kts | 71° |
| 2026-05-06 15:37 | 50.24098 | 8.98303 | 7323 ft | 294 kts | 71° |
| 2026-05-06 15:37 | 50.24799 | 9.01305 | 7251 ft | 294 kts | 71° |
| 2026-05-06 15:37 | 50.25496 | 9.04295 | 7177 ft | 293 kts | 71° |
| 2026-05-06 15:38 | 50.26192 | 9.07287 | 7105 ft | 294 kts | 71° |
| 2026-05-06 15:38 | 50.26886 | 9.10279 | 7033 ft | 293 kts | 71° |
| 2026-05-06 15:38 | 50.27585 | 9.13285 | 6957 ft | 292 kts | 71° |
| 2026-05-06 15:38 | 50.28280 | 9.16273 | 6885 ft | 293 kts | 71° |
| 2026-05-06 15:39 | 50.28972 | 9.19264 | 6812 ft | 293 kts | 71° |
| 2026-05-06 15:39 | 50.29662 | 9.22260 | 6746 ft | 292 kts | 71° |
| 2026-05-06 15:39 | 50.30351 | 9.25253 | 6667 ft | 292 kts | 71° |
| 2026-05-06 15:39 | 50.31028 | 9.28245 | 6584 ft | 290 kts | 75° |
| 2026-05-06 15:40 | 50.31181 | 9.31290 | 6503 ft | 284 kts | 102° |
| 2026-05-06 15:40 | 50.30454 | 9.34100 | 6432 ft | 278 kts | 129° |
| 2026-05-06 15:40 | 50.29002 | 9.36034 | 6359 ft | 270 kts | 158° |
| 2026-05-06 15:40 | 50.27262 | 9.36668 | 6292 ft | 265 kts | 180° |
| 2026-05-06 15:41 | 50.25419 | 9.36671 | 6175 ft | 264 kts | 184° |
| 2026-05-06 15:41 | 50.23640 | 9.36330 | 6055 ft | 261 kts | 200° |
| 2026-05-06 15:41 | 50.22080 | 9.34949 | 5927 ft | 258 kts | 223° |
| 2026-05-06 15:41 | 50.21029 | 9.32679 | 5793 ft | 257 kts | 247° |
| 2026-05-06 15:42 | 50.20674 | 9.29976 | 5671 ft | 260 kts | 267° |
| 2026-05-06 15:42 | 50.20648 | 9.27170 | 5541 ft | 255 kts | 267° |
| 2026-05-06 15:42 | 50.20618 | 9.24462 | 5411 ft | 244 kts | 267° |
| 2026-05-06 15:42 | 50.20542 | 9.21886 | 5283 ft | 233 kts | 260° |
| 2026-05-06 15:43 | 50.20167 | 9.19484 | 5170 ft | 224 kts | 249° |
| 2026-05-06 15:43 | 50.19638 | 9.17250 | 5067 ft | 216 kts | 249° |
| 2026-05-06 15:43 | 50.19126 | 9.15057 | 5001 ft | 214 kts | 249° |
| 2026-05-06 15:43 | 50.18616 | 9.12857 | 5003 ft | 215 kts | 249° |
| 2026-05-06 15:44 | 50.18279 | 9.11402 | 5002 ft | 215 kts | 249° |
| 2026-05-06 15:44 | 50.17767 | 9.09196 | 5003 ft | 216 kts | 249° |
| 2026-05-06 15:44 | 50.17254 | 9.06999 | 5002 ft | 216 kts | 249° |
| 2026-05-06 15:44 | 50.16738 | 9.04800 | 5006 ft | 216 kts | 249° |
| 2026-05-06 15:45 | 50.16224 | 9.02609 | 5007 ft | 215 kts | 248° |
| 2026-05-06 15:45 | 50.15711 | 9.00423 | 5010 ft | 214 kts | 249° |
| 2026-05-06 15:45 | 50.15200 | 8.98240 | 5013 ft | 215 kts | 248° |
| 2026-05-06 15:45 | 50.14683 | 8.96038 | 5013 ft | 214 kts | 249° |
| 2026-05-06 15:46 | 50.14173 | 8.93863 | 5009 ft | 215 kts | 249° |
| 2026-05-06 15:46 | 50.13656 | 8.91664 | 5015 ft | 215 kts | 248° |
| 2026-05-06 15:46 | 50.13156 | 8.89535 | 5027 ft | 203 kts | 248° |
| 2026-05-06 15:46 | 50.12690 | 8.87550 | 5012 ft | 187 kts | 249° |
| 2026-05-06 15:47 | 50.12250 | 8.85684 | 4975 ft | 183 kts | 248° |
| 2026-05-06 15:47 | 50.11814 | 8.83862 | 4747 ft | 180 kts | 248° |
| 2026-05-06 15:47 | 50.11376 | 8.82012 | 4499 ft | 179 kts | 248° |
| 2026-05-06 15:47 | 50.10948 | 8.80202 | 4244 ft | 178 kts | 249° |
| 2026-05-06 15:48 | 50.10520 | 8.78390 | 3997 ft | 177 kts | 249° |
| 2026-05-06 15:48 | 50.10096 | 8.76600 | 3738 ft | 181 kts | 249° |
| 2026-05-06 15:48 | 50.09651 | 8.74709 | 3483 ft | 187 kts | 250° |
| 2026-05-06 15:48 | 50.09198 | 8.72795 | 3198 ft | 195 kts | 249° |
| 2026-05-06 15:49 | 50.08718 | 8.70765 | 2913 ft | 204 kts | 250° |
| 2026-05-06 15:49 | 50.08230 | 8.68711 | 2617 ft | 194 kts | 251° |
| 2026-05-06 15:49 | 50.07786 | 8.66841 | 2360 ft | 175 kts | 251° |
| 2026-05-06 15:49 | 50.07390 | 8.65174 | 2120 ft | 155 kts | 251° |
| 2026-05-06 15:50 | 50.07030 | 8.63647 | 1855 ft | 144 kts | 252° |
| 2026-05-06 15:50 | 50.06695 | 8.62221 | 1682 ft | 138 kts | 251° |
| 2026-05-06 15:50 | 50.06372 | 8.60833 | 1500 ft | 137 kts | 253° |
| 2026-05-06 15:50 | 50.06034 | 8.59440 | 1334 ft | 137 kts | 251° |
| 2026-05-06 15:51 | 50.05708 | 8.58103 | 1123 ft | 132 kts | 251° |
| 2026-05-06 15:51 | 50.05387 | 8.56744 | 922 ft | 134 kts | 252° |
| 2026-05-06 15:51 | 50.05061 | 8.55368 | 702 ft | 134 kts | 251° |
| 2026-05-06 15:51 | 50.04739 | 8.54025 | 505 ft | 134 kts | 251° |
| 2026-05-06 15:52 | 50.04416 | 8.52683 | 355 ft | 129 kts | 251° |
| 2026-05-06 15:52 | 50.04154 | 8.51576 | 331 ft | 88 kts | 250° |
| 2026-05-06 15:52 | 50.04029 | 8.51092 | 326 ft | 27 kts | 234° |
| 2026-05-06 15:52 | 50.03904 | 8.50922 | 323 ft | 18 kts | 214° |
| 2026-05-06 15:53 | 50.03829 | 8.50846 | 329 ft | 10 kts | 197° |
| 2026-05-06 15:53 | 50.03780 | 8.50880 | 330 ft | 7 kts | 130° |
| 2026-05-06 15:53 | 50.03760 | 8.50945 | 332 ft | 6 kts | 116° |
| 2026-05-06 15:53 | 50.03743 | 8.50995 | 335 ft | 4 kts | 117° |
| 2026-05-06 15:54 | 50.03735 | 8.51021 | 335 ft | 2 kts | 118° |
| 2026-05-06 15:54 | 50.03725 | 8.51049 | 336 ft | 9 kts | 118° |
| 2026-05-06 15:54 | 50.03691 | 8.51151 | 353 ft | 10 kts | 116° |